createdAt,value
2023-02-14T00:02:27.041Z,22.30
2023-02-14T00:06:38.876Z,23.80
2023-02-14T00:10:46.830Z,23.20
2023-02-14T00:15:12.125Z,24.80
2023-02-14T00:19:21.374Z,21.10
2023-02-14T00:23:29.085Z,24.40
2023-02-14T00:27:36.806Z,25.00
2023-02-14T00:31:45.559Z,22.60
2023-02-14T00:35:53.239Z,22.20
2023-02-14T00:40:00.442Z,22.20
2023-02-14T00:44:09.652Z,21.50
2023-02-14T00:48:17.692Z,23.50
2023-02-14T00:52:25.435Z,22.70
2023-02-14T00:56:35.058Z,22.30
2023-02-14T01:00:43.130Z,24.60
2023-02-14T01:04:50.715Z,22.40
2023-02-14T01:08:58.582Z,26.40
2023-02-14T01:13:07.323Z,24.70
2023-02-14T01:17:15.083Z,21.60
2023-02-14T01:21:24.869Z,21.30
2023-02-14T01:25:33.259Z,22.20
2023-02-14T01:29:41.482Z,20.40
2023-02-14T01:33:50.607Z,22.50
2023-02-14T01:37:57.989Z,24.20
2023-02-14T01:42:06.259Z,23.40
2023-02-14T01:46:14.355Z,23.00
2023-02-14T01:50:25.041Z,23.40
2023-02-14T01:54:34.896Z,19.50
2023-02-14T01:58:45.565Z,22.20
2023-02-14T02:02:54.211Z,22.30
2023-02-14T02:07:07.490Z,25.20
2023-02-14T02:11:17.876Z,24.10
2023-02-14T02:15:27.499Z,24.60
2023-02-14T02:20:05.496Z,24.60
2023-02-14T02:24:24.836Z,23.10
2023-02-14T02:29:00.236Z,25.00
2023-02-14T02:33:32.696Z,22.50
2023-02-14T02:37:48.444Z,23.70
2023-02-14T02:42:07.681Z,21.00
2023-02-14T02:46:37.390Z,25.30
2023-02-14T02:51:10.139Z,24.00
2023-02-14T02:55:22.558Z,26.20
2023-02-14T02:59:33.708Z,23.70
2023-02-14T03:04:00.495Z,25.40
2023-02-14T03:08:09.661Z,23.10
2023-02-14T03:12:24.959Z,23.80
2023-02-14T03:16:38.599Z,25.30
2023-02-14T03:20:51.218Z,24.80
2023-02-14T03:25:02.401Z,24.60
2023-02-14T03:29:17.726Z,24.90
2023-02-14T03:33:29.575Z,24.40
2023-02-14T03:37:40.652Z,23.60
2023-02-14T03:41:53.534Z,21.80
2023-02-14T03:46:04.750Z,21.80
2023-02-14T03:50:14.625Z,18.80
2023-02-14T03:54:23.660Z,19.60
2023-02-14T03:58:34.830Z,16.50
2023-02-14T04:02:44.647Z,17.50
2023-02-14T04:06:52.251Z,20.00
2023-02-14T04:11:02.645Z,17.90
2023-02-14T04:15:14.912Z,20.00
2023-02-14T04:19:25.507Z,16.60
2023-02-14T04:23:33.837Z,18.30
2023-02-14T04:27:41.437Z,19.40
2023-02-14T04:31:50.358Z,19.20
2023-02-14T04:36:01.289Z,23.30
2023-02-14T04:40:11.039Z,23.10
2023-02-14T04:44:18.605Z,22.30
2023-02-14T04:48:27.588Z,19.90
2023-02-14T04:52:35.475Z,17.80
2023-02-14T04:56:46.070Z,21.40
2023-02-14T05:00:55.160Z,20.40
2023-02-14T05:05:03.017Z,22.10
2023-02-14T05:09:10.631Z,25.40
2023-02-14T05:13:18.908Z,24.10
2023-02-14T05:17:27.202Z,22.20
2023-02-14T05:21:35.759Z,21.80
2023-02-14T05:25:44.444Z,20.90
2023-02-14T05:29:52.427Z,18.30
2023-02-14T05:34:00.468Z,18.30
2023-02-14T05:38:08.528Z,17.30
2023-02-14T05:42:16.334Z,20.80
2023-02-14T05:46:23.855Z,18.70
2023-02-14T05:50:31.728Z,18.60
2023-02-14T05:54:41.719Z,20.10
2023-02-14T05:58:49.507Z,21.50
2023-02-14T06:02:57.516Z,30.50
2023-02-14T06:07:06.218Z,22.20
2023-02-14T06:11:13.668Z,21.20
2023-02-14T06:15:23.273Z,22.20
2023-02-14T06:19:31.122Z,18.90
2023-02-14T06:23:39.710Z,19.90
2023-02-14T06:27:49.365Z,22.60
2023-02-14T06:31:57.849Z,25.10
2023-02-14T06:36:05.978Z,22.50
2023-02-14T06:40:15.940Z,22.90
2023-02-14T06:44:24.401Z,20.10
2023-02-14T06:48:32.667Z,22.30
2023-02-14T06:52:42.462Z,23.90
2023-02-14T06:56:50.429Z,22.00
2023-02-14T07:01:00.487Z,22.20
2023-02-14T07:05:09.083Z,23.20
2023-02-14T07:09:18.613Z,23.40
2023-02-14T07:13:26.906Z,25.30
2023-02-14T07:17:35.348Z,26.00
2023-02-14T07:21:43.136Z,23.60
2023-02-14T07:25:52.422Z,26.70
2023-02-14T07:30:00.092Z,23.50
2023-02-14T07:34:07.810Z,21.30
2023-02-14T07:38:16.338Z,23.10
2023-02-14T07:42:23.880Z,20.10
2023-02-14T07:46:31.695Z,19.40
2023-02-14T07:50:39.867Z,18.90
2023-02-14T07:54:47.417Z,18.90
2023-02-14T07:58:55.023Z,20.80
2023-02-14T08:03:02.525Z,19.20
2023-02-14T08:07:10.562Z,21.30
2023-02-14T08:11:39.025Z,19.10
2023-02-14T08:16:04.090Z,20.90
2023-02-14T08:20:13.881Z,18.00
2023-02-14T08:24:22.171Z,21.30
2023-02-14T08:28:33.519Z,22.10
2023-02-14T08:32:41.937Z,20.80
2023-02-14T08:36:49.746Z,19.70
2023-02-14T08:40:58.031Z,21.90
2023-02-14T08:45:07.180Z,23.30
2023-02-14T08:49:15.242Z,18.70
2023-02-14T08:53:23.422Z,20.60
2023-02-14T08:57:31.010Z,22.50
2023-02-14T09:01:39.212Z,18.40
2023-02-14T09:05:46.765Z,18.60
2023-02-14T09:09:55.101Z,19.40
2023-02-14T09:14:05.235Z,19.50
2023-02-14T09:18:14.201Z,19.30
2023-02-14T09:22:22.402Z,16.60
2023-02-14T09:26:30.264Z,17.40
2023-02-14T09:30:38.469Z,15.00
2023-02-14T09:34:45.818Z,18.10
2023-02-14T09:38:53.929Z,17.60
2023-02-14T09:43:13.155Z,14.70
2023-02-14T09:47:27.164Z,15.60
2023-02-14T09:51:35.240Z,20.10
2023-02-14T09:55:48.210Z,18.20
2023-02-14T10:00:01.811Z,16.20
2023-02-14T10:04:25.908Z,21.60
2023-02-14T10:08:46.861Z,18.00
2023-02-14T10:12:57.408Z,18.10
2023-02-14T10:17:09.468Z,16.40
2023-02-14T10:21:23.319Z,16.10
2023-02-14T10:25:32.433Z,17.40
2023-02-14T10:29:39.737Z,15.00
2023-02-14T10:33:57.091Z,15.40
2023-02-14T10:38:11.960Z,16.90
2023-02-14T10:42:27.790Z,20.50
2023-02-14T10:46:44.612Z,23.80
2023-02-14T10:50:57.905Z,19.00
2023-02-14T10:55:30.100Z,15.90
2023-02-14T10:59:48.776Z,15.90
2023-02-14T11:04:04.526Z,14.40
2023-02-14T11:08:29.433Z,13.90
2023-02-14T11:12:39.508Z,16.10
2023-02-14T11:16:52.037Z,14.20
2023-02-14T11:21:12.563Z,14.10
2023-02-14T11:25:24.734Z,11.20
2023-02-14T11:29:35.657Z,15.20
2023-02-14T11:33:46.335Z,11.90
2023-02-14T11:37:55.984Z,12.60
2023-02-14T11:42:06.525Z,12.90
2023-02-14T11:46:36.119Z,9.50
2023-02-14T11:50:54.562Z,12.20
2023-02-14T11:55:02.615Z,11.90
2023-02-14T11:59:12.386Z,10.50
2023-02-14T12:03:22.276Z,12.20
2023-02-14T12:07:33.439Z,12.40
2023-02-14T12:11:42.220Z,9.50
2023-02-14T12:15:56.672Z,10.90
2023-02-14T12:20:09.994Z,10.00
2023-02-14T12:24:24.508Z,10.40
2023-02-14T12:28:38.748Z,11.20
2023-02-14T12:32:50.694Z,10.30
2023-02-14T12:37:20.998Z,11.80
2023-02-14T12:41:36.874Z,13.20
2023-02-14T12:46:01.106Z,10.00
2023-02-14T12:50:25.317Z,11.40
2023-02-14T12:54:46.489Z,11.20
2023-02-14T12:59:05.513Z,11.00
2023-02-14T13:03:39.980Z,10.30
2023-02-14T13:08:07.586Z,11.50
2023-02-14T13:12:26.836Z,10.10
2023-02-14T13:16:39.485Z,10.50
2023-02-14T13:20:54.233Z,11.80
2023-02-14T13:25:05.090Z,13.40
2023-02-14T13:29:15.295Z,10.80
2023-02-14T13:33:34.767Z,11.90
2023-02-14T13:37:42.884Z,13.70
2023-02-14T13:41:51.600Z,12.30
2023-02-14T13:46:01.013Z,11.60
2023-02-14T13:50:23.391Z,11.20
2023-02-14T13:54:36.261Z,13.90
2023-02-14T13:58:52.473Z,11.90
2023-02-14T14:03:00.133Z,10.00
2023-02-14T14:07:27.268Z,13.80
2023-02-14T14:12:01.372Z,16.10
2023-02-14T14:16:30.792Z,10.00
2023-02-14T14:20:49.368Z,10.70
2023-02-14T14:25:00.374Z,10.40
2023-02-14T14:29:13.127Z,11.60
2023-02-14T14:33:29.221Z,11.00
2023-02-14T14:37:38.333Z,12.10
2023-02-14T14:41:46.741Z,12.70
2023-02-14T14:45:56.578Z,13.80
2023-02-14T14:50:16.484Z,12.10
2023-02-14T14:54:27.781Z,12.60
2023-02-14T14:58:41.135Z,12.20
2023-02-14T15:02:59.490Z,10.80
2023-02-14T15:07:21.217Z,12.20
2023-02-14T15:11:49.170Z,11.70
2023-02-14T15:15:58.354Z,12.40
2023-02-14T15:20:08.755Z,13.90
2023-02-14T15:24:19.442Z,13.40
2023-02-14T15:28:35.726Z,13.90
2023-02-14T15:32:44.321Z,14.40
2023-02-14T15:36:56.557Z,14.60
2023-02-14T15:41:04.638Z,15.60
2023-02-14T15:45:21.397Z,18.30
2023-02-14T15:49:37.471Z,16.00
2023-02-14T15:53:47.112Z,15.70
2023-02-14T15:57:58.283Z,16.30
2023-02-14T16:02:16.039Z,18.60
2023-02-14T16:06:36.564Z,17.50
2023-02-14T16:10:44.165Z,15.50
2023-02-14T16:15:03.668Z,52.20
2023-02-14T16:19:41.427Z,20.20
2023-02-14T16:23:49.760Z,13.80
2023-02-14T16:27:57.418Z,10.50
2023-02-14T16:32:16.514Z,11.00
2023-02-14T16:36:28.920Z,14.40
2023-02-14T16:40:37.631Z,16.20
2023-02-14T16:44:45.604Z,17.40
2023-02-14T16:48:54.104Z,22.30
2023-02-14T16:53:02.035Z,26.80
2023-02-14T16:57:11.182Z,21.70
2023-02-14T17:01:19.792Z,22.70
2023-02-14T17:05:29.885Z,26.70
2023-02-14T17:09:40.452Z,26.40
2023-02-14T17:13:49.023Z,26.20
2023-02-14T17:18:00.955Z,20.80
2023-02-14T17:22:09.619Z,26.70
2023-02-14T17:26:18.566Z,26.00
2023-02-14T17:30:26.795Z,26.20
2023-02-14T17:34:35.981Z,23.60
2023-02-14T17:38:45.216Z,22.90
2023-02-14T17:42:52.761Z,25.00
2023-02-14T17:47:00.769Z,31.20
2023-02-14T17:51:10.763Z,34.10
2023-02-14T17:55:19.301Z,34.20
2023-02-14T17:59:27.026Z,36.80
2023-02-14T18:03:37.178Z,25.70
2023-02-14T18:07:45.532Z,41.00
2023-02-14T18:11:53.793Z,36.00
2023-02-14T18:16:04.913Z,31.40
2023-02-14T18:20:14.736Z,26.20
2023-02-14T18:24:22.740Z,34.70
2023-02-14T18:28:35.149Z,47.50
2023-02-14T18:32:43.437Z,27.80
2023-02-14T18:36:51.268Z,26.30
2023-02-14T18:40:58.990Z,26.00
2023-02-14T18:45:08.058Z,27.40
2023-02-14T18:49:16.199Z,42.30
2023-02-14T18:53:24.020Z,55.50
2023-02-14T18:57:32.192Z,71.50
2023-02-14T19:01:43.430Z,81.50
2023-02-14T19:05:53.543Z,80.40
2023-02-14T19:10:00.882Z,55.20
2023-02-14T19:14:10.948Z,35.50
2023-02-14T19:18:19.036Z,27.60
2023-02-14T19:22:27.920Z,25.10
2023-02-14T19:26:40.487Z,24.10
2023-02-14T19:30:49.211Z,24.60
2023-02-14T19:34:57.154Z,29.60
2023-02-14T19:39:05.380Z,30.60
2023-02-14T19:43:13.628Z,28.50
2023-02-14T19:47:31.313Z,27.70
2023-02-14T19:51:49.484Z,28.20
2023-02-14T19:55:57.741Z,31.40
2023-02-14T20:00:08.969Z,30.30
2023-02-14T20:04:20.953Z,32.20
2023-02-14T20:08:28.726Z,34.90
2023-02-14T20:12:37.092Z,42.30
2023-02-14T20:16:45.108Z,36.50
2023-02-14T20:21:05.687Z,38.30
2023-02-14T20:25:14.039Z,41.80
2023-02-14T20:29:23.584Z,45.40
2023-02-14T20:33:31.603Z,50.90
2023-02-14T20:37:39.384Z,47.00
2023-02-14T20:41:50.298Z,50.10
2023-02-14T20:46:01.539Z,45.00
2023-02-14T20:50:12.243Z,42.80
2023-02-14T20:54:20.469Z,42.80
2023-02-14T20:58:28.321Z,46.30
2023-02-14T21:02:36.200Z,43.40
2023-02-14T21:06:45.067Z,41.00
2023-02-14T21:10:53.080Z,49.30
2023-02-14T21:15:00.599Z,50.70
2023-02-14T21:19:08.568Z,47.00
2023-02-14T21:23:19.536Z,49.60
2023-02-14T21:27:27.393Z,45.90
2023-02-14T21:31:36.262Z,45.50
2023-02-14T21:35:44.680Z,45.90
2023-02-14T21:39:52.780Z,40.50
2023-02-14T21:44:01.786Z,43.10
2023-02-14T21:48:26.980Z,42.40
2023-02-14T21:52:35.559Z,39.40
2023-02-14T21:56:45.651Z,44.70
2023-02-14T22:00:52.923Z,44.80
2023-02-14T22:05:01.390Z,43.20
2023-02-14T22:09:12.314Z,46.30
2023-02-14T22:13:19.973Z,46.70
2023-02-14T22:17:28.238Z,46.30
2023-02-14T22:21:37.297Z,46.90
2023-02-14T22:25:45.699Z,43.90
2023-02-14T22:29:54.021Z,50.50
2023-02-14T22:34:01.506Z,48.30
2023-02-14T22:38:10.561Z,43.30
2023-02-14T22:42:19.587Z,45.00
2023-02-14T22:46:29.246Z,39.40
2023-02-14T22:50:37.627Z,45.70
2023-02-14T22:54:45.522Z,43.30
2023-02-14T22:58:56.885Z,37.70
2023-02-14T23:03:05.386Z,40.60
2023-02-14T23:07:15.163Z,38.60
2023-02-14T23:11:25.689Z,39.70
2023-02-14T23:15:50.694Z,42.40
2023-02-14T23:20:16.511Z,40.40
2023-02-14T23:24:25.957Z,34.40
2023-02-14T23:28:34.220Z,33.40
2023-02-14T23:32:42.345Z,37.00
2023-02-14T23:36:49.931Z,33.60
2023-02-14T23:41:15.541Z,38.30
2023-02-14T23:45:37.655Z,34.40
2023-02-14T23:49:46.293Z,35.10
2023-02-14T23:53:56.520Z,40.60
2023-02-14T23:58:05.911Z,36.30
